sensor_id;sensor_type;location;lat;lon;timestamp;pressure;altitude;pressure_sealevel;temperature;humidity
66430;BME280;53242;51.694;10.006;2024-02-26T00:01:33;98150.09;;;3.81;77.79
66430;BME280;53242;51.694;10.006;2024-02-26T00:03:56;98140.63;;;3.58;78.21
66430;BME280;53242;51.694;10.006;2024-02-26T00:06:21;98136.91;;;3.83;77.80
66430;BME280;53242;51.694;10.006;2024-02-26T00:08:44;98119.13;;;3.93;77.15
66430;BME280;53242;51.694;10.006;2024-02-26T00:11:06;98128.31;;;4.10;76.65
66430;BME280;53242;51.694;10.006;2024-02-26T00:13:29;98123.22;;;4.02;76.87
66430;BME280;53242;51.694;10.006;2024-02-26T00:15:51;98120.25;;;4.05;76.89
66430;BME280;53242;51.694;10.006;2024-02-26T00:18:13;98115.34;;;3.95;76.86
66430;BME280;53242;51.694;10.006;2024-02-26T00:20:36;98113.56;;;3.81;76.97
66430;BME280;53242;51.694;10.006;2024-02-26T00:22:58;98114.06;;;3.91;76.85
66430;BME280;53242;51.694;10.006;2024-02-26T00:25:21;98110.59;;;3.84;77.22
66430;BME280;53242;51.694;10.006;2024-02-26T00:27:43;98111.47;;;3.70;77.55
66430;BME280;53242;51.694;10.006;2024-02-26T00:30:06;98106.56;;;3.82;77.28
66430;BME280;53242;51.694;10.006;2024-02-26T00:32:29;98106.00;;;3.86;77.05
66430;BME280;53242;51.694;10.006;2024-02-26T00:34:51;98100.03;;;3.92;76.88
66430;BME280;53242;51.694;10.006;2024-02-26T00:37:14;98104.06;;;3.95;77.03
66430;BME280;53242;51.694;10.006;2024-02-26T00:39:36;98102.56;;;3.64;77.68
66430;BME280;53242;51.694;10.006;2024-02-26T00:41:59;98115.06;;;3.69;77.50
66430;BME280;53242;51.694;10.006;2024-02-26T00:44:21;98102.47;;;3.72;77.47
66430;BME280;53242;51.694;10.006;2024-02-26T00:46:43;98104.84;;;3.52;77.83
66430;BME280;53242;51.694;10.006;2024-02-26T00:49:06;98105.34;;;3.62;78.02
66430;BME280;53242;51.694;10.006;2024-02-26T00:51:28;98108.34;;;3.59;78.27
66430;BME280;53242;51.694;10.006;2024-02-26T00:53:51;98112.03;;;3.50;78.20
66430;BME280;53242;51.694;10.006;2024-02-26T00:56:13;98112.28;;;3.55;78.09
66430;BME280;53242;51.694;10.006;2024-02-26T00:58:36;98116.72;;;3.40;78.42
66430;BME280;53242;51.694;10.006;2024-02-26T01:00:58;98111.03;;;3.51;77.76
66430;BME280;53242;51.694;10.006;2024-02-26T01:03:21;98116.00;;;3.46;77.99
66430;BME280;53242;51.694;10.006;2024-02-26T01:05:43;98112.13;;;3.42;78.31
66430;BME280;53242;51.694;10.006;2024-02-26T01:08:06;98105.16;;;3.27;79.21
66430;BME280;53242;51.694;10.006;2024-02-26T01:10:28;98109.28;;;3.37;78.86
66430;BME280;53242;51.694;10.006;2024-02-26T01:12:51;98104.38;;;3.49;78.92
66430;BME280;53242;51.694;10.006;2024-02-26T01:15:13;98109.16;;;3.45;78.35
66430;BME280;53242;51.694;10.006;2024-02-26T01:17:35;98105.41;;;3.33;78.75
66430;BME280;53242;51.694;10.006;2024-02-26T01:19:58;98111.81;;;3.15;79.60
66430;BME280;53242;51.694;10.006;2024-02-26T01:22:20;98110.53;;;2.96;80.32
66430;BME280;53242;51.694;10.006;2024-02-26T01:24:43;98107.31;;;2.79;80.42
66430;BME280;53242;51.694;10.006;2024-02-26T01:27:05;98106.13;;;2.67;81.29
66430;BME280;53242;51.694;10.006;2024-02-26T01:29:30;98099.50;;;2.94;80.63
66430;BME280;53242;51.694;10.006;2024-02-26T01:31:52;98098.94;;;2.99;80.41
66430;BME280;53242;51.694;10.006;2024-02-26T01:34:15;98094.28;;;2.79;81.46
66430;BME280;53242;51.694;10.006;2024-02-26T01:36:37;98093.66;;;2.92;81.30
66430;BME280;53242;51.694;10.006;2024-02-26T01:39:00;98086.81;;;2.91;80.99
66430;BME280;53242;51.694;10.006;2024-02-26T01:41:22;98083.50;;;2.82;80.68
66430;BME280;53242;51.694;10.006;2024-02-26T01:43:44;98086.81;;;2.91;81.14
66430;BME280;53242;51.694;10.006;2024-02-26T01:46:11;98094.09;;;2.80;81.51
66430;BME280;53242;51.694;10.006;2024-02-26T01:48:36;98091.13;;;2.99;80.86
66430;BME280;53242;51.694;10.006;2024-02-26T01:50:58;98101.47;;;3.07;80.23
66430;BME280;53242;51.694;10.006;2024-02-26T01:53:21;98101.28;;;2.93;80.98
66430;BME280;53242;51.694;10.006;2024-02-26T01:55:43;98098.25;;;2.90;80.99
66430;BME280;53242;51.694;10.006;2024-02-26T01:58:06;98096.50;;;2.67;81.42
66430;BME280;53242;51.694;10.006;2024-02-26T02:00:29;98094.91;;;2.81;81.65
66430;BME280;53242;51.694;10.006;2024-02-26T02:02:51;98085.50;;;2.95;80.80
66430;BME280;53242;51.694;10.006;2024-02-26T02:05:15;98088.78;;;2.74;80.99
66430;BME280;53242;51.694;10.006;2024-02-26T02:07:41;98089.25;;;2.92;81.06
66430;BME280;53242;51.694;10.006;2024-02-26T02:10:03;98088.78;;;3.04;80.50
66430;BME280;53242;51.694;10.006;2024-02-26T02:12:27;98086.56;;;3.16;80.22
66430;BME280;53242;51.694;10.006;2024-02-26T02:14:49;98088.72;;;3.12;80.01
66430;BME280;53242;51.694;10.006;2024-02-26T02:17:12;98086.09;;;3.12;79.97
66430;BME280;53242;51.694;10.006;2024-02-26T02:19:34;98099.03;;;2.90;80.31
66430;BME280;53242;51.694;10.006;2024-02-26T02:21:56;98105.13;;;2.68;80.75
66430;BME280;53242;51.694;10.006;2024-02-26T02:24:19;98112.97;;;2.83;82.13
66430;BME280;53242;51.694;10.006;2024-02-26T02:26:41;98112.06;;;2.90;81.37
66430;BME280;53242;51.694;10.006;2024-02-26T02:29:04;98112.88;;;2.76;82.02
66430;BME280;53242;51.694;10.006;2024-02-26T02:31:27;98113.06;;;2.74;82.19
66430;BME280;53242;51.694;10.006;2024-02-26T02:33:50;98118.00;;;2.84;81.97
66430;BME280;53242;51.694;10.006;2024-02-26T02:36:12;98116.03;;;2.86;81.36
66430;BME280;53242;51.694;10.006;2024-02-26T02:38:36;98106.59;;;2.85;81.62
66430;BME280;53242;51.694;10.006;2024-02-26T02:40:59;98107.94;;;2.96;81.34
66430;BME280;53242;51.694;10.006;2024-02-26T02:43:21;98108.94;;;2.80;80.69
66430;BME280;53242;51.694;10.006;2024-02-26T02:45:43;98103.19;;;2.85;80.48
66430;BME280;53242;51.694;10.006;2024-02-26T02:48:06;98095.66;;;2.90;81.91
66430;BME280;53242;51.694;10.006;2024-02-26T02:50:28;98094.22;;;2.87;81.20
66430;BME280;53242;51.694;10.006;2024-02-26T02:52:51;98092.03;;;2.91;80.80
66430;BME280;53242;51.694;10.006;2024-02-26T02:55:13;98089.97;;;3.01;81.42
66430;BME280;53242;51.694;10.006;2024-02-26T02:57:36;98091.66;;;2.79;82.17
66430;BME280;53242;51.694;10.006;2024-02-26T03:00:03;98088.09;;;2.95;81.57
66430;BME280;53242;51.694;10.006;2024-02-26T03:02:26;98093.03;;;2.90;81.92
66430;BME280;53242;51.694;10.006;2024-02-26T03:04:48;98087.44;;;2.78;82.21
66430;BME280;53242;51.694;10.006;2024-02-26T03:07:10;98091.75;;;2.86;82.14
66430;BME280;53242;51.694;10.006;2024-02-26T03:09:33;98089.16;;;2.71;82.33
66430;BME280;53242;51.694;10.006;2024-02-26T03:11:55;98082.78;;;2.88;82.03
66430;BME280;53242;51.694;10.006;2024-02-26T03:14:18;98081.78;;;2.89;81.60
66430;BME280;53242;51.694;10.006;2024-02-26T03:16:40;98080.69;;;2.99;81.75
66430;BME280;53242;51.694;10.006;2024-02-26T03:19:02;98082.25;;;3.08;81.34
66430;BME280;53242;51.694;10.006;2024-02-26T03:21:27;98083.22;;;2.92;81.64
66430;BME280;53242;51.694;10.006;2024-02-26T03:23:49;98085.94;;;2.84;81.64
66430;BME280;53242;51.694;10.006;2024-02-26T03:26:12;98092.66;;;2.93;81.77
66430;BME280;53242;51.694;10.006;2024-02-26T03:28:36;98092.31;;;3.11;81.59
66430;BME280;53242;51.694;10.006;2024-02-26T03:31:00;98092.84;;;3.06;81.55
66430;BME280;53242;51.694;10.006;2024-02-26T03:33:23;98090.50;;;2.96;81.64
66430;BME280;53242;51.694;10.006;2024-02-26T03:35:45;98087.09;;;3.11;81.65
66430;BME280;53242;51.694;10.006;2024-02-26T03:38:08;98094.91;;;3.11;81.63
66430;BME280;53242;51.694;10.006;2024-02-26T03:40:31;98095.34;;;3.00;81.88
66430;BME280;53242;51.694;10.006;2024-02-26T03:42:53;98093.84;;;2.90;81.90
66430;BME280;53242;51.694;10.006;2024-02-26T03:45:16;98096.00;;;3.02;82.17
66430;BME280;53242;51.694;10.006;2024-02-26T03:47:38;98104.53;;;2.95;82.24
66430;BME280;53242;51.694;10.006;2024-02-26T03:50:04;98105.88;;;2.91;82.50
66430;BME280;53242;51.694;10.006;2024-02-26T03:52:27;98109.03;;;3.02;82.37
66430;BME280;53242;51.694;10.006;2024-02-26T03:54:49;98107.78;;;2.98;82.58
66430;BME280;53242;51.694;10.006;2024-02-26T03:57:11;98110.72;;;2.94;82.64
66430;BME280;53242;51.694;10.006;2024-02-26T03:59:34;98112.06;;;2.90;82.71
66430;BME280;53242;51.694;10.006;2024-02-26T04:01:56;98115.41;;;2.99;82.68
66430;BME280;53242;51.694;10.006;2024-02-26T04:04:19;98120.09;;;2.89;83.23
66430;BME280;53242;51.694;10.006;2024-02-26T04:06:45;98110.28;;;2.76;83.28
66430;BME280;53242;51.694;10.006;2024-02-26T04:09:08;98108.47;;;2.76;83.71
66430;BME280;53242;51.694;10.006;2024-02-26T04:11:31;98109.72;;;2.80;83.83
66430;BME280;53242;51.694;10.006;2024-02-26T04:13:54;98100.84;;;2.75;83.64
66430;BME280;53242;51.694;10.006;2024-02-26T04:16:16;98108.81;;;2.88;83.41
66430;BME280;53242;51.694;10.006;2024-02-26T04:18:39;98104.22;;;2.75;84.29
66430;BME280;53242;51.694;10.006;2024-02-26T04:21:01;98103.28;;;2.91;83.68
66430;BME280;53242;51.694;10.006;2024-02-26T04:23:24;98108.47;;;3.06;83.18
66430;BME280;53242;51.694;10.006;2024-02-26T04:25:47;98102.19;;;2.86;83.79
66430;BME280;53242;51.694;10.006;2024-02-26T04:28:09;98105.31;;;2.96;83.35
66430;BME280;53242;51.694;10.006;2024-02-26T04:30:31;98113.78;;;2.98;83.21
66430;BME280;53242;51.694;10.006;2024-02-26T04:32:54;98118.75;;;3.08;83.02
66430;BME280;53242;51.694;10.006;2024-02-26T04:35:16;98129.34;;;2.91;83.87
66430;BME280;53242;51.694;10.006;2024-02-26T04:37:39;98130.22;;;2.99;84.00
66430;BME280;53242;51.694;10.006;2024-02-26T04:40:02;98131.78;;;3.08;83.91
66430;BME280;53242;51.694;10.006;2024-02-26T04:42:25;98128.25;;;3.01;83.76
66430;BME280;53242;51.694;10.006;2024-02-26T04:44:47;98122.16;;;3.08;82.65
66430;BME280;53242;51.694;10.006;2024-02-26T04:47:09;98127.72;;;3.05;83.08
66430;BME280;53242;51.694;10.006;2024-02-26T04:49:32;98132.03;;;3.13;82.58
66430;BME280;53242;51.694;10.006;2024-02-26T04:51:56;98128.53;;;3.06;82.31
66430;BME280;53242;51.694;10.006;2024-02-26T04:54:18;98129.72;;;3.18;82.49
66430;BME280;53242;51.694;10.006;2024-02-26T04:56:41;98122.22;;;3.15;82.93
66430;BME280;53242;51.694;10.006;2024-02-26T04:59:03;98124.13;;;3.06;83.21
66430;BME280;53242;51.694;10.006;2024-02-26T05:01:26;98132.03;;;3.13;82.98
66430;BME280;53242;51.694;10.006;2024-02-26T05:03:48;98130.75;;;3.09;82.89
66430;BME280;53242;51.694;10.006;2024-02-26T05:06:11;98125.66;;;3.01;82.69
66430;BME280;53242;51.694;10.006;2024-02-26T05:08:33;98128.44;;;2.99;83.14
66430;BME280;53242;51.694;10.006;2024-02-26T05:10:58;98134.66;;;3.13;83.38
66430;BME280;53242;51.694;10.006;2024-02-26T05:13:20;98136.34;;;3.06;84.28
66430;BME280;53242;51.694;10.006;2024-02-26T05:15:42;98137.69;;;3.17;83.91
66430;BME280;53242;51.694;10.006;2024-02-26T05:18:05;98131.59;;;3.09;83.61
66430;BME280;53242;51.694;10.006;2024-02-26T05:20:28;98121.97;;;3.10;84.35
66430;BME280;53242;51.694;10.006;2024-02-26T05:22:51;98130.41;;;3.12;84.03
66430;BME280;53242;51.694;10.006;2024-02-26T05:25:16;98129.44;;;3.13;83.88
66430;BME280;53242;51.694;10.006;2024-02-26T05:27:38;98133.19;;;3.25;83.83
66430;BME280;53242;51.694;10.006;2024-02-26T05:30:01;98128.53;;;3.21;83.71
66430;BME280;53242;51.694;10.006;2024-02-26T05:32:23;98142.72;;;3.33;83.61
66430;BME280;53242;51.694;10.006;2024-02-26T05:34:45;98144.06;;;3.44;83.26
66430;BME280;53242;51.694;10.006;2024-02-26T05:37:08;98141.19;;;3.39;83.68
66430;BME280;53242;51.694;10.006;2024-02-26T05:39:30;98144.97;;;3.21;83.59
66430;BME280;53242;51.694;10.006;2024-02-26T05:41:53;98150.00;;;3.38;83.71
66430;BME280;53242;51.694;10.006;2024-02-26T05:44:15;98150.88;;;3.45;83.28
66430;BME280;53242;51.694;10.006;2024-02-26T05:46:38;98147.38;;;3.53;83.28
66430;BME280;53242;51.694;10.006;2024-02-26T05:49:01;98151.91;;;3.44;83.12
66430;BME280;53242;51.694;10.006;2024-02-26T05:51:23;98150.72;;;3.47;83.18
66430;BME280;53242;51.694;10.006;2024-02-26T05:53:46;98152.28;;;3.26;83.56
66430;BME280;53242;51.694;10.006;2024-02-26T05:56:15;98158.00;;;3.21;83.90
66430;BME280;53242;51.694;10.006;2024-02-26T05:58:38;98170.41;;;3.34;84.03
66430;BME280;53242;51.694;10.006;2024-02-26T06:01:00;98176.69;;;3.40;84.67
66430;BME280;53242;51.694;10.006;2024-02-26T06:03:23;98186.84;;;3.05;84.35
66430;BME280;53242;51.694;10.006;2024-02-26T06:05:46;98187.06;;;3.33;85.21
66430;BME280;53242;51.694;10.006;2024-02-26T06:08:08;98182.72;;;3.25;85.28
66430;BME280;53242;51.694;10.006;2024-02-26T06:10:30;98177.34;;;3.12;84.24
66430;BME280;53242;51.694;10.006;2024-02-26T06:12:53;98177.34;;;3.12;85.16
66430;BME280;53242;51.694;10.006;2024-02-26T06:15:15;98177.41;;;3.04;85.29
66430;BME280;53242;51.694;10.006;2024-02-26T06:17:38;98173.09;;;2.96;85.21
66430;BME280;53242;51.694;10.006;2024-02-26T06:20:00;98173.13;;;3.11;85.19
66430;BME280;53242;51.694;10.006;2024-02-26T06:22:23;98174.31;;;3.23;84.20
66430;BME280;53242;51.694;10.006;2024-02-26T06:24:45;98185.88;;;3.36;83.61
66430;BME280;53242;51.694;10.006;2024-02-26T06:27:07;98193.06;;;3.49;83.47
66430;BME280;53242;51.694;10.006;2024-02-26T06:29:30;98203.59;;;3.55;83.22
66430;BME280;53242;51.694;10.006;2024-02-26T06:31:53;98209.44;;;3.72;83.04
66430;BME280;53242;51.694;10.006;2024-02-26T06:34:15;98215.38;;;3.66;83.53
66430;BME280;53242;51.694;10.006;2024-02-26T06:36:38;98215.75;;;3.48;85.22
66430;BME280;53242;51.694;10.006;2024-02-26T06:39:00;98213.94;;;3.49;85.24
66430;BME280;53242;51.694;10.006;2024-02-26T06:41:23;98213.06;;;3.41;85.03
66430;BME280;53242;51.694;10.006;2024-02-26T06:43:49;98211.06;;;3.43;84.52
66430;BME280;53242;51.694;10.006;2024-02-26T06:46:12;98213.13;;;3.33;85.08
66430;BME280;53242;51.694;10.006;2024-02-26T06:48:34;98212.69;;;3.44;84.40
66430;BME280;53242;51.694;10.006;2024-02-26T06:50:59;98206.94;;;3.49;84.07
66430;BME280;53242;51.694;10.006;2024-02-26T06:53:21;98212.69;;;3.44;84.67
66430;BME280;53242;51.694;10.006;2024-02-26T06:55:43;98220.06;;;3.41;85.05
66430;BME280;53242;51.694;10.006;2024-02-26T06:58:06;98209.44;;;3.42;84.81
66430;BME280;53242;51.694;10.006;2024-02-26T07:00:28;98215.03;;;3.39;85.00
66430;BME280;53242;51.694;10.006;2024-02-26T07:02:51;98208.44;;;3.43;84.90
66430;BME280;53242;51.694;10.006;2024-02-26T07:05:13;98204.84;;;3.44;85.02
66430;BME280;53242;51.694;10.006;2024-02-26T07:07:36;98199.72;;;3.51;84.93
66430;BME280;53242;51.694;10.006;2024-02-26T07:09:58;98211.41;;;3.55;84.58
66430;BME280;53242;51.694;10.006;2024-02-26T07:12:20;98211.94;;;3.66;83.75
66430;BME280;53242;51.694;10.006;2024-02-26T07:14:43;98207.38;;;3.68;83.71
66430;BME280;53242;51.694;10.006;2024-02-26T07:17:06;98203.06;;;3.75;82.86
66430;BME280;53242;51.694;10.006;2024-02-26T07:19:28;98192.69;;;3.67;83.12
66430;BME280;53242;51.694;10.006;2024-02-26T07:21:50;98201.06;;;3.77;83.00
66430;BME280;53242;51.694;10.006;2024-02-26T07:24:13;98183.94;;;3.89;82.47
66430;BME280;53242;51.694;10.006;2024-02-26T07:26:36;98189.50;;;4.01;82.40
66430;BME280;53242;51.694;10.006;2024-02-26T07:28:59;98196.47;;;4.16;81.99
66430;BME280;53242;51.694;10.006;2024-02-26T07:31:22;98189.72;;;4.21;81.68
66430;BME280;53242;51.694;10.006;2024-02-26T07:33:44;98187.44;;;4.18;81.42
66430;BME280;53242;51.694;10.006;2024-02-26T07:36:06;98184.34;;;4.08;81.94
66430;BME280;53242;51.694;10.006;2024-02-26T07:38:29;98192.81;;;3.95;82.17
66430;BME280;53242;51.694;10.006;2024-02-26T07:40:51;98185.31;;;4.07;82.12
66430;BME280;53242;51.694;10.006;2024-02-26T07:43:14;98189.25;;;4.18;81.36
66430;BME280;53242;51.694;10.006;2024-02-26T07:45:36;98205.63;;;4.26;82.13
66430;BME280;53242;51.694;10.006;2024-02-26T07:47:58;98204.50;;;4.36;81.91
66430;BME280;53242;51.694;10.006;2024-02-26T07:50:21;98209.34;;;4.39;81.49
66430;BME280;53242;51.694;10.006;2024-02-26T07:52:44;98209.00;;;4.42;81.91
66430;BME280;53242;51.694;10.006;2024-02-26T07:55:07;98212.28;;;4.51;81.78
66430;BME280;53242;51.694;10.006;2024-02-26T07:57:30;98202.66;;;4.51;81.97
66430;BME280;53242;51.694;10.006;2024-02-26T07:59:52;98218.50;;;4.50;82.37
66430;BME280;53242;51.694;10.006;2024-02-26T08:02:15;98211.47;;;4.72;81.28
66430;BME280;53242;51.694;10.006;2024-02-26T08:04:38;98220.25;;;4.64;82.01
66430;BME280;53242;51.694;10.006;2024-02-26T08:07:00;98225.09;;;4.45;82.78
66430;BME280;53242;51.694;10.006;2024-02-26T08:09:23;98223.53;;;4.51;82.98
66430;BME280;53242;51.694;10.006;2024-02-26T08:11:45;98235.28;;;4.62;83.22
66430;BME280;53242;51.694;10.006;2024-02-26T08:14:07;98237.56;;;4.65;82.83
66430;BME280;53242;51.694;10.006;2024-02-26T08:16:30;98228.19;;;4.77;82.63
66430;BME280;53242;51.694;10.006;2024-02-26T08:18:52;98233.22;;;4.79;83.39
66430;BME280;53242;51.694;10.006;2024-02-26T08:21:15;98230.84;;;4.84;83.16
66430;BME280;53242;51.694;10.006;2024-02-26T08:23:37;98222.88;;;5.14;82.24
66430;BME280;53242;51.694;10.006;2024-02-26T08:25:59;98222.50;;;5.24;81.40
66430;BME280;53242;51.694;10.006;2024-02-26T08:28:22;98226.00;;;5.31;81.28
66430;BME280;53242;51.694;10.006;2024-02-26T08:30:44;98222.44;;;5.10;81.41
66430;BME280;53242;51.694;10.006;2024-02-26T08:33:07;98223.66;;;5.15;81.81
66430;BME280;53242;51.694;10.006;2024-02-26T08:35:29;98220.84;;;5.16;81.65
66430;BME280;53242;51.694;10.006;2024-02-26T08:37:52;98224.44;;;5.15;82.06
66430;BME280;53242;51.694;10.006;2024-02-26T08:40:14;98225.59;;;5.06;82.09
66430;BME280;53242;51.694;10.006;2024-02-26T08:42:37;98225.72;;;5.19;81.93
66430;BME280;53242;51.694;10.006;2024-02-26T08:45:00;98227.53;;;5.25;81.87
66430;BME280;53242;51.694;10.006;2024-02-26T08:47:23;98237.72;;;5.42;81.22
66430;BME280;53242;51.694;10.006;2024-02-26T08:49:46;98241.13;;;5.36;81.07
66430;BME280;53242;51.694;10.006;2024-02-26T08:52:08;98240.94;;;5.37;81.34
66430;BME280;53242;51.694;10.006;2024-02-26T08:54:31;98247.19;;;5.43;81.03
66430;BME280;53242;51.694;10.006;2024-02-26T08:56:54;98238.34;;;5.44;81.08
66430;BME280;53242;51.694;10.006;2024-02-26T08:59:17;98241.59;;;5.46;80.65
66430;BME280;53242;51.694;10.006;2024-02-26T09:01:44;98244.72;;;5.35;81.00
66430;BME280;53242;51.694;10.006;2024-02-26T09:04:07;98229.59;;;5.30;81.07
66430;BME280;53242;51.694;10.006;2024-02-26T09:06:29;98232.25;;;5.37;80.77
66430;BME280;53242;51.694;10.006;2024-02-26T09:08:52;98231.19;;;5.59;80.33
66430;BME280;53242;51.694;10.006;2024-02-26T09:11:14;98229.31;;;5.47;80.68
66430;BME280;53242;51.694;10.006;2024-02-26T09:13:37;98231.16;;;5.53;80.35
66430;BME280;53242;51.694;10.006;2024-02-26T09:15:59;98222.31;;;5.54;80.73
66430;BME280;53242;51.694;10.006;2024-02-26T09:18:21;98226.56;;;5.62;80.63
66430;BME280;53242;51.694;10.006;2024-02-26T09:20:44;98223.84;;;5.83;79.69
66430;BME280;53242;51.694;10.006;2024-02-26T09:23:07;98232.34;;;5.92;79.41
66430;BME280;53242;51.694;10.006;2024-02-26T09:25:29;98225.78;;;6.03;79.08
66430;BME280;53242;51.694;10.006;2024-02-26T09:27:52;98222.22;;;6.31;78.15
66430;BME280;53242;51.694;10.006;2024-02-26T09:30:14;98234.72;;;6.35;77.97
66430;BME280;53242;51.694;10.006;2024-02-26T09:32:37;98245.63;;;6.46;77.82
66430;BME280;53242;51.694;10.006;2024-02-26T09:34:59;98246.50;;;6.73;77.21
66430;BME280;53242;51.694;10.006;2024-02-26T09:37:22;98250.94;;;6.93;76.48
66430;BME280;53242;51.694;10.006;2024-02-26T09:39:44;98251.94;;;7.25;74.91
66430;BME280;53242;51.694;10.006;2024-02-26T09:42:07;98260.63;;;7.05;78.98
66430;BME280;53242;51.694;10.006;2024-02-26T09:44:34;98259.63;;;7.06;79.67
66430;BME280;53242;51.694;10.006;2024-02-26T09:47:00;98257.00;;;7.27;78.86
66430;BME280;53242;51.694;10.006;2024-02-26T09:49:24;98252.31;;;7.35;78.37
66430;BME280;53242;51.694;10.006;2024-02-26T09:51:49;98255.13;;;7.54;77.51
66430;BME280;53242;51.694;10.006;2024-02-26T09:54:12;98255.34;;;7.52;77.09
66430;BME280;53242;51.694;10.006;2024-02-26T09:56:39;98249.59;;;7.82;75.84
66430;BME280;53242;51.694;10.006;2024-02-26T09:59:05;98259.56;;;7.60;76.76
66430;BME280;53242;51.694;10.006;2024-02-26T10:01:28;98252.72;;;7.39;76.93
66430;BME280;53242;51.694;10.006;2024-02-26T10:03:56;98265.00;;;7.58;75.94
66430;BME280;53242;51.694;10.006;2024-02-26T10:06:19;98262.56;;;7.64;75.79
66430;BME280;53242;51.694;10.006;2024-02-26T10:08:42;98260.72;;;7.78;74.84
66430;BME280;53242;51.694;10.006;2024-02-26T10:11:06;98262.75;;;7.76;74.29
66430;BME280;53242;51.694;10.006;2024-02-26T10:13:29;98263.78;;;7.61;75.24
66430;BME280;53242;51.694;10.006;2024-02-26T10:15:51;98264.91;;;7.99;73.89
66430;BME280;53242;51.694;10.006;2024-02-26T10:18:14;98263.69;;;8.01;73.56
66430;BME280;53242;51.694;10.006;2024-02-26T10:20:36;98266.06;;;8.10;73.17
66430;BME280;53242;51.694;10.006;2024-02-26T10:23:03;98266.09;;;8.03;73.39
66430;BME280;53242;51.694;10.006;2024-02-26T10:25:25;98261.44;;;8.12;73.25
66430;BME280;53242;51.694;10.006;2024-02-26T10:27:48;98270.84;;;8.26;72.83
66430;BME280;53242;51.694;10.006;2024-02-26T10:32:40;98283.00;;;8.27;72.80
66430;BME280;53242;51.694;10.006;2024-02-26T10:35:08;98282.50;;;8.44;72.57
66430;BME280;53242;51.694;10.006;2024-02-26T10:37:30;98284.31;;;8.43;72.45
66430;BME280;53242;51.694;10.006;2024-02-26T10:39:53;98284.97;;;8.38;72.41
66430;BME280;53242;51.694;10.006;2024-02-26T10:42:15;98282.72;;;8.49;72.16
66430;BME280;53242;51.694;10.006;2024-02-26T10:44:40;98282.06;;;8.53;71.85
66430;BME280;53242;51.694;10.006;2024-02-26T10:47:03;98289.72;;;8.62;71.58
66430;BME280;53242;51.694;10.006;2024-02-26T10:49:25;98288.50;;;8.58;71.62
66430;BME280;53242;51.694;10.006;2024-02-26T10:51:54;98292.53;;;8.67;71.29
66430;BME280;53242;51.694;10.006;2024-02-26T10:54:18;98295.34;;;8.65;71.44
66430;BME280;53242;51.694;10.006;2024-02-26T10:56:42;98291.72;;;8.66;71.45
66430;BME280;53242;51.694;10.006;2024-02-26T10:59:07;98289.69;;;8.68;71.21
66430;BME280;53242;51.694;10.006;2024-02-26T11:01:30;98300.19;;;8.68;71.04
66430;BME280;53242;51.694;10.006;2024-02-26T11:03:55;98295.53;;;8.70;70.33
66430;BME280;53242;51.694;10.006;2024-02-26T11:06:19;98298.31;;;8.76;70.02
66430;BME280;53242;51.694;10.006;2024-02-26T11:08:43;98294.22;;;8.86;69.20
66430;BME280;53242;51.694;10.006;2024-02-26T11:11:07;98296.00;;;8.93;69.02
66430;BME280;53242;51.694;10.006;2024-02-26T11:13:30;98292.47;;;9.05;68.47
66430;BME280;53242;51.694;10.006;2024-02-26T11:15:54;98289.84;;;9.05;68.30
66430;BME280;53242;51.694;10.006;2024-02-26T11:18:18;98298.97;;;9.03;68.36
66430;BME280;53242;51.694;10.006;2024-02-26T11:20:41;98299.66;;;8.92;68.52
66430;BME280;53242;51.694;10.006;2024-02-26T11:23:04;98289.88;;;8.99;68.85
66430;BME280;53242;51.694;10.006;2024-02-26T11:25:27;98287.16;;;9.12;68.38
66430;BME280;53242;51.694;10.006;2024-02-26T11:27:58;98295.44;;;9.16;68.37
66430;BME280;53242;51.694;10.006;2024-02-26T11:30:25;98299.03;;;9.21;68.53
66430;BME280;53242;51.694;10.006;2024-02-26T11:32:48;98289.81;;;9.31;68.29
66430;BME280;53242;51.694;10.006;2024-02-26T11:35:10;98299.41;;;9.25;68.52
66430;BME280;53242;51.694;10.006;2024-02-26T11:37:35;98291.22;;;9.33;68.10
66430;BME280;53242;51.694;10.006;2024-02-26T11:40:01;98292.22;;;9.39;67.98
66430;BME280;53242;51.694;10.006;2024-02-26T11:42:24;98294.09;;;9.32;68.08
66430;BME280;53242;51.694;10.006;2024-02-26T11:44:48;98285.03;;;9.46;68.14
66430;BME280;53242;51.694;10.006;2024-02-26T11:47:17;98297.72;;;9.56;67.52
66430;BME280;53242;51.694;10.006;2024-02-26T11:49:40;98286.81;;;9.71;67.47
66430;BME280;53242;51.694;10.006;2024-02-26T11:52:05;98283.31;;;9.59;67.68
66430;BME280;53242;51.694;10.006;2024-02-26T11:54:38;98284.84;;;9.66;66.96
66430;BME280;53242;51.694;10.006;2024-02-26T11:57:01;98277.03;;;9.78;66.92
66430;BME280;53242;51.694;10.006;2024-02-26T11:59:44;98281.34;;;9.91;66.31
66430;BME280;53242;51.694;10.006;2024-02-26T12:02:07;98281.50;;;9.78;66.61
66430;BME280;53242;51.694;10.006;2024-02-26T12:04:30;98284.78;;;9.92;66.19
66430;BME280;53242;51.694;10.006;2024-02-26T12:11:55;98287.00;;;9.95;66.23
66430;BME280;53242;51.694;10.006;2024-02-26T12:14:17;98283.75;;;9.74;66.20
66430;BME280;53242;51.694;10.006;2024-02-26T12:16:40;98290.19;;;9.97;66.11
66430;BME280;53242;51.694;10.006;2024-02-26T12:19:09;98290.50;;;9.88;65.93
66430;BME280;53242;51.694;10.006;2024-02-26T12:21:33;98294.38;;;10.04;66.24
66430;BME280;53242;51.694;10.006;2024-02-26T12:24:07;98288.22;;;10.11;65.53
66430;BME280;53242;51.694;10.006;2024-02-26T12:26:30;98291.06;;;10.09;65.99
66430;BME280;53242;51.694;10.006;2024-02-26T12:28:52;98288.00;;;10.12;66.44
66430;BME280;53242;51.694;10.006;2024-02-26T12:31:14;98285.22;;;10.07;66.24
66430;BME280;53242;51.694;10.006;2024-02-26T12:33:37;98297.22;;;10.22;65.85
66430;BME280;53242;51.694;10.006;2024-02-26T12:35:59;98303.53;;;10.20;65.85
66430;BME280;53242;51.694;10.006;2024-02-26T12:38:22;98308.56;;;10.22;66.16
66430;BME280;53242;51.694;10.006;2024-02-26T12:40:44;98309.81;;;10.19;66.04
66430;BME280;53242;51.694;10.006;2024-02-26T12:43:07;98323.00;;;10.38;66.20
66430;BME280;53242;51.694;10.006;2024-02-26T12:45:34;98323.88;;;10.32;66.84